Time;durP1;ratioP1;P1;durP2;ratioP2;P2;SDS_P1;SDS_P2;PMS_P1;PMS_P2;Temp;Humidity;BMP_temperature;BMP_pressure;BME280_temperature;BME280_humidity;BME280_pressure;Samples;Min_cycle;Max_cycle;Signal;HPM_P1;HPM_P2
2021/04/14 00:01:06;;;;;;;;;;;;;;;21.60;29.51;97583.41;5096193;28;1122;-87
2021/04/14 00:03:32;;;;;;;;;;;;;;;21.65;29.38;97571.50;5097341;28;1089;-87
2021/04/14 00:06:00;;;;;;;;;;;;;;;21.55;29.60;97581.97;5095943;28;1103;-87
2021/04/14 00:08:30;;;;;;;;;;;;;;;21.54;29.75;97579.56;5114209;28;1027;-87
2021/04/14 00:11:05;;;;;;;;;;;;;;;21.55;29.83;97586.81;5095769;28;1111;-87
2021/04/14 00:13:38;;;;;;;;;;;;;;;21.50;29.84;97585.38;5131570;28;829;-87
2021/04/14 00:16:04;;;;;;;;;;;;;;;21.44;29.71;97578.66;5096873;28;1224;-87
2021/04/14 00:18:31;;;;;;;;;;;;;;;21.47;29.54;97574.16;5114326;28;1972;-87
2021/04/14 00:20:56;;;;;;;;;;;;;;;21.56;29.56;97577.09;5112604;28;679;-87
2021/04/14 00:23:28;;;;;;;;;;;;;;;21.57;29.65;97568.13;5115302;28;1014;-87
2021/04/14 00:25:55;;;;;;;;;;;;;;;21.59;29.65;97565.63;5095947;28;1166;-86
2021/04/14 00:28:22;;;;;;;;;;;;;;;21.60;29.51;97566.41;5131001;28;864;-87
2021/04/14 00:30:52;;;;;;;;;;;;;;;21.61;29.94;97561.56;5096475;28;1083;-87
2021/04/14 00:33:26;;;;;;;;;;;;;;;22.18;28.59;97560.41;5131287;28;702;-87
2021/04/14 00:35:54;;;;;;;;;;;;;;;22.26;28.64;97556.06;5095655;28;1188;-87
2021/04/14 00:38:29;;;;;;;;;;;;;;;21.85;28.91;97557.88;5115408;28;1894;-86
2021/04/14 00:41:06;;;;;;;;;;;;;;;21.63;29.04;97547.75;5095562;28;1211;-87
2021/04/14 00:43:33;;;;;;;;;;;;;;;21.51;29.51;97552.19;5113679;28;1026;-86
2021/04/14 00:45:59;;;;;;;;;;;;;;;21.62;29.38;97546.16;5112847;28;1011;-87
2021/04/14 00:48:29;;;;;;;;;;;;;;;21.59;29.43;97547.84;5114966;28;682;-87
2021/04/14 00:50:55;;;;;;;;;;;;;;;21.58;29.66;97551.94;5094753;28;1072;-86
2021/04/14 00:53:24;;;;;;;;;;;;;;;21.60;29.83;97543.78;5114473;28;1030;-86
2021/04/14 00:55:50;;;;;;;;;;;;;;;21.53;29.97;97544.81;5095010;28;1221;-87
2021/04/14 00:58:35;;;;;;;;;;;;;;;21.59;29.53;97548.63;5099691;28;1965;-87
2021/04/14 01:01:01;;;;;;;;;;;;;;;21.62;29.79;97541.28;5078606;28;1093;-87
2021/04/14 01:03:31;;;;;;;;;;;;;;;21.61;29.80;97533.25;5113765;28;1285;-87
2021/04/14 01:05:57;;;;;;;;;;;;;;;21.63;29.63;97542.88;5115034;28;1155;-87
2021/04/14 01:08:25;;;;;;;;;;;;;;;21.55;29.68;97539.50;5116989;28;1189;-87
2021/04/14 01:10:51;;;;;;;;;;;;;;;21.50;29.84;97542.91;5116184;28;1050;-87
2021/04/14 01:13:21;;;;;;;;;;;;;;;21.57;29.74;97533.38;5117867;28;797;-87
2021/04/14 01:15:49;;;;;;;;;;;;;;;21.58;29.84;97529.28;5099237;28;1431;-87
2021/04/14 01:18:21;;;;;;;;;;;;;;;21.77;29.53;97525.41;5134137;28;1898;-87
2021/04/14 01:20:48;;;;;;;;;;;;;;;22.08;28.86;97524.72;5099409;28;1101;-86
2021/04/14 01:23:14;;;;;;;;;;;;;;;22.35;28.73;97529.84;5132882;27;904;-87
2021/04/14 01:25:40;;;;;;;;;;;;;;;21.96;29.12;97534.03;5098276;28;1051;-87
2021/04/14 01:28:07;;;;;;;;;;;;;;;21.87;29.10;97525.50;5100007;28;1123;-87
2021/04/14 01:30:33;;;;;;;;;;;;;;;21.73;29.16;97524.72;5115753;28;1071;-87
2021/04/14 01:33:05;;;;;;;;;;;;;;;21.68;29.32;97516.81;5116271;28;796;-87
2021/04/14 01:35:30;;;;;;;;;;;;;;;21.70;29.70;97514.31;5115259;28;1050;-87
2021/04/14 01:37:56;;;;;;;;;;;;;;;21.62;29.95;97518.66;5082212;28;1973;-87
2021/04/14 01:40:23;;;;;;;;;;;;;;;21.45;29.87;97511.53;5115535;27;1031;-87
2021/04/14 01:42:48;;;;;;;;;;;;;;;21.63;29.66;97508.09;5133286;27;1050;-87
2021/04/14 01:45:16;;;;;;;;;;;;;;;21.59;29.82;97516.72;5098970;28;1044;-87
2021/04/14 01:47:44;;;;;;;;;;;;;;;21.53;29.77;97507.22;5099365;28;1114;-87
2021/04/14 01:50:10;;;;;;;;;;;;;;;21.49;29.93;97509.38;5099136;28;1252;-87
2021/04/14 01:52:38;;;;;;;;;;;;;;;21.51;30.11;97504.06;5115429;28;912;-87
2021/04/14 01:55:04;;;;;;;;;;;;;;;21.53;30.04;97504.38;5098096;28;1162;-87
2021/04/14 01:57:50;;;;;;;;;;;;;;;21.53;30.11;97501.56;5132918;28;1986;-86
2021/04/14 02:00:20;;;;;;;;;;;;;;;21.87;29.52;97502.84;5115868;27;1205;-87
2021/04/14 02:02:47;;;;;;;;;;;;;;;22.19;28.88;97493.97;5099271;28;726;-86
2021/04/14 02:05:14;;;;;;;;;;;;;;;22.14;29.15;97491.75;5098880;28;1240;-87
2021/04/14 02:07:41;;;;;;;;;;;;;;;21.79;29.35;97483.25;5115049;28;939;-87
2021/04/14 02:10:07;;;;;;;;;;;;;;;21.79;29.28;97488.91;5097770;28;1485;-87
2021/04/14 02:12:51;;;;;;;;;;;;;;;21.68;29.39;97491.31;5117882;28;829;-87
2021/04/14 02:15:28;;;;;;;;;;;;;;;21.62;29.82;97481.84;5098307;28;1154;-87
2021/04/14 02:17:55;;;;;;;;;;;;;;;21.64;29.59;97487.81;5132751;28;1882;-87
2021/04/14 02:20:21;;;;;;;;;;;;;;;21.59;29.72;97482.75;5098175;28;1376;-87
2021/04/14 02:22:49;;;;;;;;;;;;;;;21.59;29.92;97479.91;5115110;28;999;-87
2021/04/14 02:25:16;;;;;;;;;;;;;;;21.65;29.74;97478.06;5098164;28;920;-86
2021/04/14 02:27:43;;;;;;;;;;;;;;;21.63;29.74;97474.91;5115105;28;989;-87
2021/04/14 02:30:10;;;;;;;;;;;;;;;21.64;29.63;97470.03;5098362;28;1193;-87
2021/04/14 02:32:35;;;;;;;;;;;;;;;21.65;29.83;97466.75;5081277;28;1170;-87
2021/04/14 02:35:01;;;;;;;;;;;;;;;21.91;29.76;97461.78;5115133;28;694;-86
2021/04/14 02:37:27;;;;;;;;;;;;;;;22.29;28.92;97463.66;5097582;28;1898;-87
2021/04/14 02:39:53;;;;;;;;;;;;;;;22.24;28.75;97467.88;5097638;28;1177;-87
2021/04/14 02:42:22;;;;;;;;;;;;;;;21.87;29.30;97466.00;5097870;28;1031;-87
2021/04/14 02:44:48;;;;;;;;;;;;;;;21.70;29.51;97456.88;5098247;28;1080;-87
2021/04/14 02:47:15;;;;;;;;;;;;;;;21.61;29.56;97459.66;5113812;28;1420;-87
2021/04/14 02:49:40;;;;;;;;;;;;;;;21.52;29.71;97451.88;5097598;28;1059;-87
2021/04/14 02:52:06;;;;;;;;;;;;;;;21.58;29.86;97459.31;5094422;28;1054;-81
2021/04/14 02:54:31;;;;;;;;;;;;;;;21.67;29.71;97452.94;5132016;28;923;-86
2021/04/14 02:56:57;;;;;;;;;;;;;;;21.68;29.57;97450.91;5096759;28;1887;-87
2021/04/14 02:59:25;;;;;;;;;;;;;;;21.63;29.78;97452.28;5098274;28;1264;-87
2021/04/14 03:01:51;;;;;;;;;;;;;;;21.58;29.79;97445.16;5097525;28;1162;-87
2021/04/14 03:04:17;;;;;;;;;;;;;;;21.46;30.23;97442.38;5098308;28;1173;-87
2021/04/14 03:06:42;;;;;;;;;;;;;;;21.59;29.68;97448.78;5079900;28;1280;-86
2021/04/14 03:09:08;;;;;;;;;;;;;;;21.54;29.76;97444.47;5097198;28;1299;-86
2021/04/14 03:11:34;;;;;;;;;;;;;;;21.57;29.84;97448.44;5096941;28;1221;-87
2021/04/14 03:14:00;;;;;;;;;;;;;;;21.50;30.17;97443.00;5097619;28;1051;-86
2021/04/14 03:16:26;;;;;;;;;;;;;;;21.47;30.13;97438.28;5113737;28;1961;-87
2021/04/14 03:18:52;;;;;;;;;;;;;;;21.52;29.89;97440.53;5097157;28;1019;-87
2021/04/14 03:21:19;;;;;;;;;;;;;;;21.56;30.01;97424.22;5129725;28;920;-86
2021/04/14 03:23:45;;;;;;;;;;;;;;;22.02;29.39;97444.38;5097776;28;1115;-86
2021/04/14 03:26:13;;;;;;;;;;;;;;;22.36;28.83;97435.81;5097458;28;1158;-87
2021/04/14 03:28:39;;;;;;;;;;;;;;;22.23;28.60;97452.13;5114592;28;1221;-87
2021/04/14 03:31:06;;;;;;;;;;;;;;;21.96;28.87;97446.22;5113834;28;656;-87
2021/04/14 03:33:33;;;;;;;;;;;;;;;21.82;29.20;97448.34;5115185;28;696;-86
2021/04/14 03:35:59;;;;;;;;;;;;;;;21.71;29.22;97455.63;5096014;28;1170;-87
2021/04/14 03:38:29;;;;;;;;;;;;;;;21.74;29.15;97452.69;5098276;28;1890;-87
2021/04/14 03:40:55;;;;;;;;;;;;;;;21.69;29.26;97456.09;5113540;28;1051;-87
2021/04/14 03:43:21;;;;;;;;;;;;;;;21.75;29.55;97457.09;5081146;28;1137;-87
2021/04/14 03:45:52;;;;;;;;;;;;;;;21.65;29.76;97455.41;5113522;28;693;-87
2021/04/14 03:48:18;;;;;;;;;;;;;;;21.62;29.89;97445.03;5097330;28;1305;-88
2021/04/14 03:50:44;;;;;;;;;;;;;;;21.60;30.02;97447.50;5097486;28;1261;-88
2021/04/14 03:53:34;;;;;;;;;;;;;;;21.52;29.97;97437.72;5115904;28;749;-85
2021/04/14 03:56:04;;;;;;;;;;;;;;;21.51;30.05;97438.97;5095544;28;1067;-86
2021/04/14 03:58:30;;;;;;;;;;;;;;;21.41;30.16;97446.56;5093630;28;1999;-86
2021/04/14 04:00:57;;;;;;;;;;;;;;;21.54;30.08;97449.34;5094427;28;1070;-86
2021/04/14 04:03:24;;;;;;;;;;;;;;;21.51;30.13;97447.47;5127765;28;1106;-86
2021/04/14 04:05:51;;;;;;;;;;;;;;;21.61;30.03;97442.66;5093880;28;1181;-86
2021/04/14 04:08:38;;;;;;;;;;;;;;;21.62;29.91;97456.34;5116829;28;682;-86
2021/04/14 04:11:07;;;;;;;;;;;;;;;21.67;29.85;97447.28;5097071;28;1325;-88
2021/04/14 04:13:40;;;;;;;;;;;;;;;21.59;29.68;97445.94;5115087;28;726;-88
2021/04/14 04:16:45;;;;;;;;;;;;;;;21.65;29.90;97460.28;5119050;28;1975;-88
2021/04/14 04:19:11;;;;;;;;;;;;;;;22.11;29.20;97458.66;5097987;28;1138;-87
2021/04/14 04:21:40;;;;;;;;;;;;;;;22.30;28.71;97471.69;5114499;28;738;-89
2021/04/14 04:24:06;;;;;;;;;;;;;;;22.01;28.83;97465.47;5097850;28;1127;-89
2021/04/14 04:26:33;;;;;;;;;;;;;;;21.83;29.11;97472.59;5113743;28;803;-87
2021/04/14 04:28:58;;;;;;;;;;;;;;;21.82;29.10;97465.34;5095461;28;1085;-85
2021/04/14 04:31:24;;;;;;;;;;;;;;;21.54;29.52;97466.34;5110214;28;876;-86
2021/04/14 04:33:49;;;;;;;;;;;;;;;21.64;29.10;97468.00;5108663;28;894;-85
2021/04/14 04:36:15;;;;;;;;;;;;;;;21.65;29.51;97455.41;5092170;28;828;-85
2021/04/14 04:38:40;;;;;;;;;;;;;;;21.58;29.49;97467.00;5092839;28;1887;-86
2021/04/14 04:41:06;;;;;;;;;;;;;;;21.56;29.90;97458.19;5095536;28;1207;-84
2021/04/14 04:43:31;;;;;;;;;;;;;;;21.62;29.67;97467.69;5095709;28;1281;-84
2021/04/14 04:45:57;;;;;;;;;;;;;;;21.51;29.73;97464.44;5114263;28;781;-86
2021/04/14 04:48:23;;;;;;;;;;;;;;;21.51;30.00;97455.94;5114531;28;930;-85
2021/04/14 04:50:49;;;;;;;;;;;;;;;21.50;30.11;97468.50;5114617;28;725;-84
2021/04/14 04:53:15;;;;;;;;;;;;;;;21.47;29.91;97464.56;5131516;28;1152;-86
2021/04/14 04:55:42;;;;;;;;;;;;;;;21.51;29.89;97470.09;5096029;28;1209;-86
2021/04/14 04:58:08;;;;;;;;;;;;;;;22.03;29.29;97474.31;5081443;28;1895;-86
2021/04/14 05:00:33;;;;;;;;;;;;;;;22.32;28.88;97472.00;5076429;28;1190;-71
2021/04/14 05:02:59;;;;;;;;;;;;;;;22.67;29.21;97469.06;5103031;28;1324;-83
2021/04/14 05:05:25;;;;;;;;;;;;;;;22.49;29.32;97468.97;5070038;28;1237;-86
2021/04/14 05:07:51;;;;;;;;;;;;;;;22.02;29.85;97467.03;5074780;28;1143;-87
2021/04/14 05:10:16;;;;;;;;;;;;;;;21.84;29.65;97460.00;5074344;28;1198;-86
2021/04/14 05:12:42;;;;;;;;;;;;;;;21.71;29.99;97453.63;5075697;28;1163;-86
2021/04/14 05:15:09;;;;;;;;;;;;;;;21.71;30.02;97466.94;5089332;28;1202;-86
2021/04/14 05:17:34;;;;;;;;;;;;;;;21.67;30.06;97458.59;5071543;28;1987;-85
2021/04/14 05:20:00;;;;;;;;;;;;;;;21.64;30.35;97459.50;5089501;28;1282;-84
2021/04/14 05:22:26;;;;;;;;;;;;;;;21.70;29.95;97451.22;5087683;28;937;-86
2021/04/14 05:24:51;;;;;;;;;;;;;;;21.63;30.29;97440.94;5056459;28;1321;-87
2021/04/14 05:27:17;;;;;;;;;;;;;;;21.66;30.06;97440.03;5073680;28;1096;-86
2021/04/14 05:29:43;;;;;;;;;;;;;;;21.48;30.55;97437.81;5110007;28;699;-87
2021/04/14 05:32:08;;;;;;;;;;;;;;;21.52;30.18;97437.72;5075568;28;1238;-88
2021/04/14 05:34:34;;;;;;;;;;;;;;;21.62;30.01;97436.53;5075303;28;1110;-89
2021/04/14 05:36:59;;;;;;;;;;;;;;;21.51;30.40;97427.63;5073629;28;1874;-87
2021/04/14 05:39:25;;;;;;;;;;;;;;;21.52;30.26;97429.22;5072648;28;934;-86
2021/04/14 05:41:50;;;;;;;;;;;;;;;21.50;30.51;97431.69;5088675;28;841;-84
2021/04/14 05:44:16;;;;;;;;;;;;;;;21.44;30.57;97427.88;5072123;28;627;-86
2021/04/14 05:46:41;;;;;;;;;;;;;;;21.55;30.05;97433.94;5071890;28;1215;-86
2021/04/14 05:49:07;;;;;;;;;;;;;;;21.45;30.29;97446.44;5072167;28;852;-85
2021/04/14 05:51:32;;;;;;;;;;;;;;;21.45;30.23;97450.06;5087383;28;1186;-83
2021/04/14 05:53:58;;;;;;;;;;;;;;;21.53;30.33;97447.78;5088706;28;887;-83
2021/04/14 05:56:23;;;;;;;;;;;;;;;21.44;30.35;97456.19;5072617;28;1008;-85
2021/04/14 05:58:49;;;;;;;;;;;;;;;21.44;30.49;97456.97;5071673;28;1968;-81
2021/04/14 06:01:15;;;;;;;;;;;;;;;21.42;30.21;97461.50;5106972;28;617;-85
2021/04/14 06:03:41;;;;;;;;;;;;;;;21.36;30.53;97466.19;5087849;28;1181;-85
2021/04/14 06:06:06;;;;;;;;;;;;;;;21.32;30.61;97464.25;5070996;28;1250;-82
2021/04/14 06:08:32;;;;;;;;;;;;;;;21.39;30.28;97466.03;5087414;28;1082;-83
2021/04/14 06:10:57;;;;;;;;;;;;;;;21.49;30.23;97458.44;5087485;28;1044;-84
2021/04/14 06:13:23;;;;;;;;;;;;;;;21.52;30.09;97460.34;5069996;28;867;-83
2021/04/14 06:15:48;;;;;;;;;;;;;;;21.49;30.10;97464.09;5087747;28;975;-84
2021/04/14 06:18:14;;;;;;;;;;;;;;;22.08;29.77;97453.88;5087059;28;1958;-85
2021/04/14 06:20:40;;;;;;;;;;;;;;;22.30;29.47;97454.69;5069375;28;1106;-84
2021/04/14 06:23:06;;;;;;;;;;;;;;;22.54;29.37;97448.53;5072281;28;1295;-87
2021/04/14 06:25:38;;;;;;;;;;;;;;;22.09;29.41;97455.47;5073884;28;1184;-88
2021/04/14 06:28:06;;;;;;;;;;;;;;;21.78;29.98;97459.00;5075670;28;1147;-87
2021/04/14 06:30:38;;;;;;;;;;;;;;;21.58;29.90;97461.34;5056721;28;1416;-86
2021/04/14 06:33:05;;;;;;;;;;;;;;;21.59;29.94;97457.25;5054589;28;938;-87
2021/04/14 06:35:31;;;;;;;;;;;;;;;21.55;29.97;97462.25;5072112;28;1272;-84
2021/04/14 06:38:03;;;;;;;;;;;;;;;21.61;30.02;97466.09;5070438;28;1910;-87
2021/04/14 06:40:52;;;;;;;;;;;;;;;21.50;30.43;97455.16;5072710;28;1145;-88
2021/04/14 06:43:26;;;;;;;;;;;;;;;21.44;30.43;97461.84;5092752;28;1050;-85
2021/04/14 06:45:53;;;;;;;;;;;;;;;21.39;30.57;97453.91;5087164;28;1140;-88
2021/04/14 06:48:43;;;;;;;;;;;;;;;21.40;30.69;97464.00;5073693;28;1204;-85
2021/04/14 06:51:20;;;;;;;;;;;;;;;21.43;30.43;97466.72;5106644;28;1336;-87
2021/04/14 06:54:05;;;;;;;;;;;;;;;21.51;30.24;97459.56;5070170;28;1191;-85
2021/04/14 06:56:31;;;;;;;;;;;;;;;21.63;30.29;97462.81;5080708;28;1914;-88
2021/04/14 06:59:01;;;;;;;;;;;;;;;21.45;30.64;97463.41;5066974;28;1233;-85
2021/04/14 07:01:28;;;;;;;;;;;;;;;21.45;30.49;97469.88;5065888;28;1131;-86
2021/04/14 07:03:56;;;;;;;;;;;;;;;21.66;30.46;97473.19;5084633;28;1141;-84
2021/04/14 07:06:23;;;;;;;;;;;;;;;22.18;29.60;97475.41;5084676;28;1175;-87
2021/04/14 07:09:03;;;;;;;;;;;;;;;22.45;29.30;97468.31;5065527;28;1185;-85
2021/04/14 07:11:30;;;;;;;;;;;;;;;21.97;29.87;97464.84;5083848;28;1107;-85
2021/04/14 07:13:58;;;;;;;;;;;;;;;21.64;30.09;97453.84;5066567;28;1171;-83
2021/04/14 07:16:33;;;;;;;;;;;;;;;21.56;30.25;97461.03;5084358;28;1185;-85
2021/04/14 07:19:08;;;;;;;;;;;;;;;21.51;30.18;97467.28;5067309;28;1292;-83
2021/04/14 07:21:42;;;;;;;;;;;;;;;21.56;30.38;97475.97;5084135;28;677;-83
2021/04/14 07:24:18;;;;;;;;;;;;;;;21.37;30.80;97470.59;5083408;28;822;-85
2021/04/14 07:26:56;;;;;;;;;;;;;;;21.47;30.54;97477.91;5083971;28;756;-84
2021/04/14 07:29:29;;;;;;;;;;;;;;;21.51;30.51;97484.25;5080603;28;1158;-86
2021/04/14 07:32:06;;;;;;;;;;;;;;;21.45;30.46;97486.06;5067343;28;1306;-85
2021/04/14 07:34:39;;;;;;;;;;;;;;;21.43;30.61;97494.22;5067788;28;1225;-86
2021/04/14 07:37:09;;;;;;;;;;;;;;;21.46;30.27;97493.31;5065925;28;1973;-87
2021/04/14 07:39:34;;;;;;;;;;;;;;;21.50;30.47;97491.97;5065604;28;1320;-87
2021/04/14 07:42:03;;;;;;;;;;;;;;;21.32;30.61;97501.03;5085811;28;1131;-87
2021/04/14 07:44:35;;;;;;;;;;;;;;;21.32;30.64;97492.53;5069161;28;1268;-85
2021/04/14 07:47:01;;;;;;;;;;;;;;;21.52;30.40;97497.16;5069015;28;1159;-87
2021/04/14 07:49:26;;;;;;;;;;;;;;;21.54;30.29;97503.13;5068070;28;1217;-86
2021/04/14 07:51:52;;;;;;;;;;;;;;;21.57;30.18;97499.41;5084821;28;1269;-86
2021/04/14 07:54:18;;;;;;;;;;;;;;;21.61;30.23;97494.41;5068099;28;1304;-87
2021/04/14 07:56:51;;;;;;;;;;;;;;;21.40;30.38;97509.28;5067341;28;1879;-86
2021/04/14 07:59:30;;;;;;;;;;;;;;;21.41;30.40;97502.38;5067135;28;1299;-86
2021/04/14 08:01:56;;;;;;;;;;;;;;;21.69;30.54;97501.41;5064631;28;1286;-86
2021/04/14 08:04:26;;;;;;;;;;;;;;;22.04;29.98;97492.88;5084214;28;1338;-85
2021/04/14 08:06:51;;;;;;;;;;;;;;;22.29;29.69;97503.34;5068361;28;1196;-87
2021/04/14 08:09:20;;;;;;;;;;;;;;;21.99;29.60;97493.47;5065677;28;1253;-85
2021/04/14 08:11:46;;;;;;;;;;;;;;;21.74;29.88;97491.53;5080535;28;1173;-83
2021/04/14 08:14:36;;;;;;;;;;;;;;;21.72;29.61;97488.38;5082108;28;1229;-85
2021/04/14 08:17:12;;;;;;;;;;;;;;;21.57;29.90;97486.03;5085520;28;1978;-85
2021/04/14 08:19:37;;;;;;;;;;;;;;;21.52;30.25;97494.31;5080911;28;1162;-84
2021/04/14 08:22:05;;;;;;;;;;;;;;;21.41;30.53;97486.19;5053192;28;1282;-85
2021/04/14 08:24:32;;;;;;;;;;;;;;;21.49;30.31;97481.06;5086823;28;665;-88
2021/04/14 08:26:59;;;;;;;;;;;;;;;21.30;30.53;97480.91;5054601;28;1210;-89
2021/04/14 08:29:24;;;;;;;;;;;;;;;21.37;30.32;97484.72;5055884;28;1179;-86
2021/04/14 08:31:50;;;;;;;;;;;;;;;21.33;30.67;97484.84;5053376;28;1230;-86
2021/04/14 08:34:17;;;;;;;;;;;;;;;21.39;30.20;97482.22;5084635;28;1245;-83
2021/04/14 08:36:47;;;;;;;;;;;;;;;21.35;30.12;97475.88;5070628;28;1905;-87
2021/04/14 08:39:14;;;;;;;;;;;;;;;21.32;30.19;97472.72;5069880;28;1163;-87
2021/04/14 08:41:39;;;;;;;;;;;;;;;21.41;30.29;97474.09;5070457;28;1289;-88
2021/04/14 08:44:09;;;;;;;;;;;;;;;21.85;30.40;97492.72;5069412;28;1166;-87
2021/04/14 08:46:39;;;;;;;;;;;;;;;22.23;29.86;97520.16;5051816;28;1187;-88
2021/04/14 08:49:14;;;;;;;;;;;;;;;22.45;29.17;97488.16;5072571;28;1195;-88
2021/04/14 08:51:42;;;;;;;;;;;;;;;21.92;29.84;97482.41;5054494;28;1238;-87
2021/04/14 08:54:08;;;;;;;;;;;;;;;21.62;30.25;97507.31;5054883;28;1194;-89
2021/04/14 08:56:34;;;;;;;;;;;;;;;21.51;30.29;97526.72;5071947;28;1214;-88
2021/04/14 08:58:59;;;;;;;;;;;;;;;21.46;30.34;97521.63;5056045;28;1914;-88
2021/04/14 09:01:31;;;;;;;;;;;;;;;21.42;30.65;97501.94;5070166;28;1281;-83
2021/04/14 09:03:57;;;;;;;;;;;;;;;21.38;30.64;97497.63;5069097;28;1145;-86
2021/04/14 09:06:22;;;;;;;;;;;;;;;21.56;30.68;97501.44;5085731;28;950;-85
2021/04/14 09:08:50;;;;;;;;;;;;;;;21.58;30.72;97484.00;5068537;28;1240;-86
2021/04/14 09:11:20;;;;;;;;;;;;;;;21.71;30.75;97470.59;5069247;28;673;-83
2021/04/14 09:13:46;;;;;;;;;;;;;;;21.79;30.41;97459.78;5067901;28;1150;-87
2021/04/14 09:16:11;;;;;;;;;;;;;;;21.74;30.76;97475.34;5085116;28;950;-85
2021/04/14 09:18:37;;;;;;;;;;;;;;;21.66;30.67;97479.69;5051281;28;1905;-85
2021/04/14 09:21:09;;;;;;;;;;;;;;;21.65;31.08;97480.91;5068278;28;828;-85
2021/04/14 09:23:35;;;;;;;;;;;;;;;21.78;30.75;97487.31;5083749;28;1303;-86
2021/04/14 09:26:01;;;;;;;;;;;;;;;21.56;31.23;97469.53;5050535;28;1179;-83
2021/04/14 09:28:36;;;;;;;;;;;;;;;21.62;31.33;97473.34;5068002;28;765;-86
2021/04/14 09:31:15;;;;;;;;;;;;;;;21.65;30.94;97472.41;5068455;28;1154;-84
2021/04/14 09:33:41;;;;;;;;;;;;;;;21.57;31.56;97476.75;5085270;28;877;-84
2021/04/14 09:36:08;;;;;;;;;;;;;;;21.73;31.27;97473.75;5067247;28;677;-85
2021/04/14 09:38:37;;;;;;;;;;;;;;;21.67;31.14;97475.59;5084682;28;1902;-85
2021/04/14 09:41:07;;;;;;;;;;;;;;;21.72;31.09;97483.50;5051838;28;1167;-82
2021/04/14 09:43:33;;;;;;;;;;;;;;;21.69;31.51;97478.75;5083770;28;641;-83
2021/04/14 09:46:00;;;;;;;;;;;;;;;21.67;31.38;97503.91;5083033;28;860;-85
2021/04/14 09:48:25;;;;;;;;;;;;;;;21.62;31.33;97527.13;5083605;28;917;-87
2021/04/14 09:50:51;;;;;;;;;;;;;;;21.49;31.50;97538.47;5067482;28;1187;-84
2021/04/14 09:53:19;;;;;;;;;;;;;;;21.65;31.17;97526.22;5066424;28;789;-87
2021/04/14 09:55:46;;;;;;;;;;;;;;;21.61;31.10;97534.06;5085314;28;1195;-85
2021/04/14 09:58:30;;;;;;;;;;;;;;;21.62;31.35;97504.50;5068505;28;1879;-86
2021/04/14 10:00:58;;;;;;;;;;;;;;;21.76;31.02;97470.00;5086376;28;919;-87
2021/04/14 10:03:26;;;;;;;;;;;;;;;22.41;30.46;97476.16;5084939;28;930;-86
2021/04/14 10:05:55;;;;;;;;;;;;;;;22.48;30.08;97487.22;5068527;28;705;-87
2021/04/14 10:08:21;;;;;;;;;;;;;;;22.56;29.58;97494.22;5068699;28;1363;-87
2021/04/14 10:10:47;;;;;;;;;;;;;;;22.02;30.29;97498.22;5085489;28;598;-87
2021/04/14 10:13:13;;;;;;;;;;;;;;;21.97;29.92;97505.28;5085505;28;729;-88
2021/04/14 10:15:40;;;;;;;;;;;;;;;21.69;30.56;97524.06;5083621;28;897;-86
2021/04/14 10:18:06;;;;;;;;;;;;;;;21.69;30.88;97518.38;5049345;28;1902;-86
2021/04/14 10:20:35;;;;;;;;;;;;;;;21.74;31.10;97514.97;5083215;28;839;-86
2021/04/14 10:23:01;;;;;;;;;;;;;;;21.72;30.89;97505.38;5067010;28;1168;-85
2021/04/14 10:25:34;;;;;;;;;;;;;;;21.70;31.15;97510.69;5068429;28;1171;-87
2021/04/14 10:28:00;;;;;;;;;;;;;;;21.68;31.34;97516.03;5068932;28;1264;-86
2021/04/14 10:30:26;;;;;;;;;;;;;;;21.73;31.46;97524.72;5068708;28;865;-83
2021/04/14 10:32:52;;;;;;;;;;;;;;;21.44;31.75;97513.56;5067115;28;920;-88
2021/04/14 10:35:22;;;;;;;;;;;;;;;21.49;31.69;97503.72;5051556;28;1236;-84
2021/04/14 10:37:48;;;;;;;;;;;;;;;21.58;31.46;97503.81;5066897;28;1910;-85
2021/04/14 10:40:19;;;;;;;;;;;;;;;21.61;31.41;97516.28;5085265;28;677;-86
2021/04/14 10:42:45;;;;;;;;;;;;;;;21.47;31.73;97526.81;5053535;28;1319;-86
2021/04/14 10:45:12;;;;;;;;;;;;;;;21.51;31.71;97530.34;5068734;28;1129;-85
2021/04/14 10:47:38;;;;;;;;;;;;;;;21.60;31.23;97535.28;5068242;28;897;-83
2021/04/14 10:50:27;;;;;;;;;;;;;;;21.59;31.53;97528.03;5082916;28;947;-85
2021/04/14 10:52:58;;;;;;;;;;;;;;;21.61;31.35;97528.38;5064938;28;1265;-83
2021/04/14 10:55:34;;;;;;;;;;;;;;;21.56;31.15;97526.94;5083224;28;1127;-83
2021/04/14 10:58:00;;;;;;;;;;;;;;;21.81;31.35;97520.41;5081874;28;1968;-84
2021/04/14 11:00:30;;;;;;;;;;;;;;;22.23;30.80;97522.97;5082408;28;959;-86
2021/04/14 11:02:56;;;;;;;;;;;;;;;22.57;30.22;97519.25;5065534;28;1348;-85
2021/04/14 11:05:23;;;;;;;;;;;;;;;22.29;30.19;97521.13;5082569;28;912;-84
2021/04/14 11:07:49;;;;;;;;;;;;;;;21.97;30.90;97504.50;5065598;28;803;-84
2021/04/14 11:10:17;;;;;;;;;;;;;;;21.73;30.79;97504.91;5065846;28;869;-85
2021/04/14 11:12:43;;;;;;;;;;;;;;;21.70;30.73;97497.31;5082628;28;658;-86
2021/04/14 11:15:10;;;;;;;;;;;;;;;21.77;30.57;97485.75;5065246;28;1265;-84
2021/04/14 11:17:35;;;;;;;;;;;;;;;21.69;30.77;97495.72;5058543;28;1897;-85
2021/04/14 11:20:05;;;;;;;;;;;;;;;21.66;31.05;97507.19;5062716;28;959;-87
2021/04/14 11:22:41;;;;;;;;;;;;;;;21.56;31.40;97511.97;5046259;28;689;-84
2021/04/14 11:25:07;;;;;;;;;;;;;;;21.56;31.36;97497.81;5045964;28;789;-86
2021/04/14 11:27:33;;;;;;;;;;;;;;;21.58;31.32;97489.66;5061519;28;942;-83
2021/04/14 11:30:15;;;;;;;;;;;;;;;21.62;31.42;97498.81;5044404;28;817;-86
2021/04/14 11:32:40;;;;;;;;;;;;;;;21.77;30.93;97502.75;5046868;28;1165;-88
2021/04/14 11:35:07;;;;;;;;;;;;;;;21.48;31.74;97508.59;5031461;28;1399;-87
2021/04/14 11:37:34;;;;;;;;;;;;;;;21.54;31.61;97511.63;5064092;28;1871;-88
2021/04/14 11:40:00;;;;;;;;;;;;;;;21.59;31.24;97505.38;5048266;28;1115;-85
2021/04/14 11:42:40;;;;;;;;;;;;;;;21.64;31.16;97510.47;5046580;28;1286;-85
2021/04/14 11:45:06;;;;;;;;;;;;;;;21.56;31.52;97497.81;5044019;28;1276;-80
2021/04/14 11:47:33;;;;;;;;;;;;;;;21.94;31.68;97494.84;5043110;28;1118;-79
2021/04/14 11:50:11;;;;;;;;;;;;;;;22.07;31.79;97481.44;5062464;28;659;-86
2021/04/14 11:52:53;;;;;;;;;;;;;;;22.39;30.98;97481.53;5047485;28;1293;-84
2021/04/14 11:55:22;;;;;;;;;;;;;;;22.04;30.74;97482.34;5028655;28;1163;-84
2021/04/14 11:58:06;;;;;;;;;;;;;;;21.84;31.19;97479.81;5047037;28;1965;-83
2021/04/14 12:00:36;;;;;;;;;;;;;;;21.78;31.01;97464.66;5063226;28;865;-86
2021/04/14 12:03:03;;;;;;;;;;;;;;;21.71;31.00;97464.94;5066556;28;923;-84
2021/04/14 12:05:29;;;;;;;;;;;;;;;21.77;31.12;97456.66;5066338;28;876;-88
2021/04/14 12:07:54;;;;;;;;;;;;;;;21.69;31.55;97452.47;5065517;28;1305;-88
2021/04/14 12:10:20;;;;;;;;;;;;;;;21.77;31.49;97462.31;5065581;28;1244;-87
2021/04/14 12:12:48;;;;;;;;;;;;;;;21.71;31.33;97458.47;5081904;28;777;-87
2021/04/14 12:15:14;;;;;;;;;;;;;;;21.78;31.54;97459.00;5066030;28;667;-87
2021/04/14 12:17:40;;;;;;;;;;;;;;;21.76;31.49;97461.53;5066164;28;1914;-86
2021/04/14 12:20:06;;;;;;;;;;;;;;;21.81;31.88;97455.28;5078414;28;839;-76
2021/04/14 12:22:32;;;;;;;;;;;;;;;21.90;32.07;97459.41;5059858;28;830;-74
2021/04/14 12:24:58;;;;;;;;;;;;;;;22.02;31.94;97450.03;5059775;28;646;-73
2021/04/14 12:27:23;;;;;;;;;;;;;;;22.18;31.79;97466.91;5060212;28;594;-86
2021/04/14 12:29:49;;;;;;;;;;;;;;;22.02;32.02;97462.19;5042859;28;1192;-84
2021/04/14 12:32:14;;;;;;;;;;;;;;;22.06;31.88;97459.22;5076155;28;965;-85
2021/04/14 12:34:40;;;;;;;;;;;;;;;22.12;32.04;97460.22;5042546;28;1032;-88
2021/04/14 12:37:05;;;;;;;;;;;;;;;21.97;31.98;97467.66;5047443;28;1975;-87
2021/04/14 12:39:31;;;;;;;;;;;;;;;22.06;31.51;97462.03;5047721;28;1285;-87
2021/04/14 12:41:56;;;;;;;;;;;;;;;22.09;31.35;97461.91;5061319;28;618;-84
2021/04/14 12:44:22;;;;;;;;;;;;;;;22.02;31.71;97478.38;5060257;28;1186;-83
2021/04/14 12:46:48;;;;;;;;;;;;;;;21.94;31.43;97465.75;5059592;28;832;-83
2021/04/14 12:49:14;;;;;;;;;;;;;;;21.95;31.42;97456.00;5059693;28;853;-83
2021/04/14 12:51:41;;;;;;;;;;;;;;;21.91;31.49;97460.97;5061097;28;884;-83
2021/04/14 12:54:06;;;;;;;;;;;;;;;22.06;31.13;97456.38;5061436;28;645;-85
2021/04/14 12:56:36;;;;;;;;;;;;;;;21.95;31.24;97444.66;5065597;28;1056;-84
2021/04/14 12:59:12;;;;;;;;;;;;;;;22.02;30.85;97458.53;5081123;28;1909;-85
2021/04/14 13:01:38;;;;;;;;;;;;;;;21.86;31.24;97459.53;5084644;28;834;-86
2021/04/14 13:04:09;;;;;;;;;;;;;;;21.79;31.53;97454.91;5084216;28;951;-81
2021/04/14 13:06:55;;;;;;;;;;;;;;;21.90;31.36;97465.06;5067667;28;915;-83